createdAt,value
2018-09-02T00:00:55.607Z,11.80
2018-09-02T00:05:59.889Z,11.80
2018-09-02T00:11:03.465Z,11.80
2018-09-02T00:16:07.208Z,11.40
2018-09-02T00:21:10.957Z,11.40
2018-09-02T00:26:14.665Z,11.60
2018-09-02T00:31:18.206Z,11.60
2018-09-02T00:36:21.798Z,11.90
2018-09-02T00:41:25.409Z,11.30
2018-09-02T00:46:31.041Z,11.00
2018-09-02T00:51:34.621Z,10.80
2018-09-02T00:56:38.437Z,11.00
2018-09-02T01:01:42.157Z,10.70
2018-09-02T01:06:45.787Z,10.50
2018-09-02T01:11:49.456Z,10.90
2018-09-02T01:16:54.257Z,10.80
2018-09-02T01:21:57.895Z,10.50
2018-09-02T01:27:01.466Z,10.30
2018-09-02T01:32:05.021Z,10.10
2018-09-02T01:37:08.714Z,10.80
2018-09-02T01:42:12.599Z,10.60
2018-09-02T01:47:16.282Z,10.40
2018-09-02T01:52:19.864Z,10.30
2018-09-02T01:57:23.634Z,10.10
2018-09-02T02:02:27.198Z,9.80
2018-09-02T02:07:31.154Z,9.70
2018-09-02T02:12:34.797Z,9.80
2018-09-02T02:17:38.577Z,9.80
2018-09-02T02:22:42.175Z,9.80
2018-09-02T02:27:45.887Z,9.70
2018-09-02T02:32:50.294Z,9.70
2018-09-02T02:37:53.994Z,9.60
2018-09-02T02:42:57.546Z,9.70
2018-09-02T02:48:02.157Z,9.80
2018-09-02T02:53:06.214Z,10.00
2018-09-02T02:58:10.861Z,10.10
2018-09-02T03:03:14.498Z,10.10
2018-09-02T03:08:18.189Z,9.90
2018-09-02T03:13:21.757Z,9.90
2018-09-02T03:18:25.414Z,9.80
2018-09-02T03:23:29.198Z,9.60
2018-09-02T03:28:32.800Z,9.70
2018-09-02T03:33:37.454Z,9.30
2018-09-02T03:38:41.042Z,9.80
2018-09-02T03:43:45.734Z,9.70
2018-09-02T03:48:49.410Z,9.50
2018-09-02T03:53:53.050Z,9.40
2018-09-02T03:58:56.874Z,9.50
2018-09-02T04:04:00.428Z,9.60
2018-09-02T04:09:04.960Z,9.50
2018-09-02T04:14:10.607Z,9.40
2018-09-02T04:19:14.172Z,9.90
2018-09-02T04:24:17.779Z,9.60
2018-09-02T04:29:21.346Z,9.30
2018-09-02T04:34:27.181Z,9.20
2018-09-02T04:39:30.830Z,9.00
2018-09-02T04:44:34.549Z,8.80
2018-09-02T04:49:38.139Z,8.80
2018-09-02T04:54:41.766Z,9.00
2018-09-02T04:59:45.375Z,8.90
2018-09-02T05:04:48.919Z,9.30
2018-09-02T05:09:52.467Z,9.20
2018-09-02T05:14:56.634Z,9.10
2018-09-02T05:20:00.598Z,9.00
2018-09-02T05:25:04.303Z,9.10
2018-09-02T05:30:08.809Z,9.20
2018-09-02T05:35:12.471Z,9.40
2018-09-02T05:40:16.062Z,9.70
2018-09-02T05:45:20.375Z,9.60
2018-09-02T05:50:25.248Z,9.60
2018-09-02T05:55:28.838Z,9.50
2018-09-02T06:00:32.689Z,9.60
2018-09-02T06:05:36.352Z,9.80
2018-09-02T06:10:40.114Z,10.00
2018-09-02T06:15:43.777Z,10.20
2018-09-02T06:20:48.375Z,10.60
2018-09-02T06:25:52.470Z,10.90
2018-09-02T06:30:56.337Z,11.40
2018-09-02T06:36:00.285Z,11.50
2018-09-02T06:41:03.957Z,11.50
2018-09-02T06:46:07.702Z,11.60
2018-09-02T06:51:11.331Z,12.00
2018-09-02T06:56:14.951Z,12.10
2018-09-02T07:01:18.977Z,12.70
2018-09-02T07:06:22.559Z,13.10
2018-09-02T07:11:26.264Z,13.10
2018-09-02T07:16:30.078Z,13.40
2018-09-02T07:21:34.353Z,13.90
2018-09-02T07:26:38.038Z,14.60
2018-09-02T07:31:41.914Z,15.70
2018-09-02T07:36:49.487Z,16.20
2018-09-02T07:41:53.146Z,15.70
2018-09-02T07:46:57.104Z,16.50
2018-09-02T07:52:01.910Z,16.50
2018-09-02T07:57:06.549Z,17.20
2018-09-02T08:02:10.498Z,17.00
2018-09-02T08:07:15.218Z,17.70
2018-09-02T08:12:19.090Z,17.80
2018-09-02T08:17:22.613Z,17.70
2018-09-02T08:22:26.731Z,17.40
2018-09-02T08:27:32.562Z,17.20
2018-09-02T08:32:36.837Z,17.10
2018-09-02T08:37:40.431Z,17.50
2018-09-02T08:42:44.330Z,17.90
2018-09-02T08:47:50.055Z,18.60
2018-09-02T08:52:53.739Z,18.90
2018-09-02T08:57:57.358Z,18.40
2018-09-02T09:03:01.528Z,17.90
2018-09-02T09:08:05.292Z,17.90
2018-09-02T09:13:09.230Z,18.10
2018-09-02T09:18:12.955Z,19.90
2018-09-02T09:23:16.711Z,19.50
2018-09-02T09:28:20.542Z,19.10
2018-09-02T09:33:24.183Z,18.60
2018-09-02T09:38:28.943Z,18.40
2018-09-02T09:43:33.702Z,18.30
2018-09-02T09:48:38.513Z,18.20
2018-09-02T09:53:44.348Z,18.10
2018-09-02T09:58:49.024Z,18.10
2018-09-02T10:03:57.654Z,18.00
2018-09-02T10:09:01.208Z,18.00
2018-09-02T10:14:04.875Z,17.90
2018-09-02T10:19:08.766Z,17.90
2018-09-02T10:24:13.097Z,18.00
2018-09-02T10:29:16.814Z,17.90
2018-09-02T10:34:20.400Z,17.90
2018-09-02T10:39:24.034Z,17.90
2018-09-02T10:44:27.635Z,17.90
2018-09-02T10:49:31.465Z,17.80
2018-09-02T10:54:35.014Z,17.80
2018-09-02T10:59:38.816Z,16.60
2018-09-02T11:04:42.701Z,17.70
2018-09-02T11:09:46.326Z,17.60
2018-09-02T11:14:50.914Z,17.70
2018-09-02T11:19:54.692Z,17.70
2018-09-02T11:24:58.275Z,17.80
2018-09-02T11:30:01.798Z,17.80
2018-09-02T11:35:05.686Z,17.90
2018-09-02T11:40:11.798Z,18.00
2018-09-02T11:45:15.822Z,18.00
2018-09-02T11:50:19.372Z,18.10
2018-09-02T11:55:23.114Z,18.00
2018-09-02T12:00:26.932Z,18.00
2018-09-02T12:05:30.733Z,18.00
2018-09-02T12:10:34.645Z,18.10
2018-09-02T12:15:38.431Z,18.00
2018-09-02T12:20:42.232Z,18.10
2018-09-02T12:25:45.881Z,18.10
2018-09-02T12:30:49.543Z,18.00
2018-09-02T12:35:53.197Z,18.10
2018-09-02T12:40:56.861Z,18.10
2018-09-02T12:46:00.618Z,18.30
2018-09-02T12:51:06.245Z,18.40
2018-09-02T12:56:09.895Z,18.40
2018-09-02T13:01:13.531Z,18.40
2018-09-02T13:06:17.148Z,18.40
2018-09-02T13:11:21.850Z,18.50
2018-09-02T13:16:25.446Z,18.50
2018-09-02T13:21:29.068Z,18.50
2018-09-02T13:26:32.670Z,18.50
2018-09-02T13:31:36.368Z,18.50
2018-09-02T13:36:40.042Z,18.50
2018-09-02T13:41:43.620Z,18.50
2018-09-02T13:46:47.621Z,18.50
2018-09-02T13:51:51.181Z,18.40
2018-09-02T13:56:54.834Z,18.40
2018-09-02T14:01:58.470Z,18.50
2018-09-02T14:07:02.347Z,18.40
2018-09-02T14:12:07.695Z,18.40
2018-09-02T14:17:11.269Z,18.30
2018-09-02T14:22:14.862Z,18.30
2018-09-02T14:27:18.415Z,18.40
2018-09-02T14:32:22.199Z,18.40
2018-09-02T14:37:26.782Z,18.40
2018-09-02T14:42:30.382Z,18.40
2018-09-02T14:47:36.211Z,18.40
2018-09-02T14:52:40.498Z,18.40
2018-09-02T14:57:44.165Z,18.40
2018-09-02T15:02:47.991Z,18.40
2018-09-02T15:07:51.744Z,18.40
2018-09-02T15:12:55.519Z,18.40
2018-09-02T15:17:59.830Z,18.30
2018-09-02T15:23:08.043Z,18.30
2018-09-02T15:28:15.533Z,18.20
2018-09-02T15:33:20.888Z,18.10
2018-09-02T15:38:25.440Z,18.10
2018-09-02T15:43:29.454Z,18.00
2018-09-02T15:48:33.902Z,17.80
2018-09-02T15:53:39.028Z,17.80
2018-09-02T15:58:42.809Z,17.70
2018-09-02T16:03:46.509Z,17.60
2018-09-02T16:08:53.688Z,17.60
2018-09-02T16:13:58.405Z,17.60
2018-09-02T16:19:02.235Z,17.60
2018-09-02T16:24:07.038Z,17.50
2018-09-02T16:29:10.853Z,17.40
2018-09-02T16:34:14.657Z,17.30
2018-09-02T16:39:18.483Z,17.20
2018-09-02T16:44:22.312Z,17.60
2018-09-02T16:49:26.136Z,17.30
2018-09-02T16:54:29.806Z,17.40
2018-09-02T16:59:33.599Z,17.50
2018-09-02T17:04:39.134Z,17.80
2018-09-02T17:09:42.818Z,17.80
2018-09-02T17:14:46.513Z,17.90
2018-09-02T17:19:54.137Z,17.90
2018-09-02T17:24:57.898Z,17.80
2018-09-02T17:30:01.503Z,17.70
2018-09-02T17:35:05.071Z,17.70
2018-09-02T17:40:09.818Z,17.70
2018-09-02T17:45:13.354Z,17.80
2018-09-02T17:50:17.086Z,17.90
2018-09-02T17:55:20.796Z,17.90
2018-09-02T18:00:56.606Z,17.80
2018-09-02T18:06:00.334Z,17.70
2018-09-02T18:11:05.850Z,17.70
2018-09-02T18:16:11.612Z,17.60
2018-09-02T18:21:15.358Z,18.30
2018-09-02T18:26:19.103Z,17.60
2018-09-02T18:31:24.011Z,17.60
2018-09-02T18:36:28.012Z,17.50
2018-09-02T18:41:31.691Z,17.50
2018-09-02T18:46:36.520Z,17.50
2018-09-02T18:51:40.299Z,17.30
2018-09-02T18:56:47.290Z,17.30
2018-09-02T19:01:50.844Z,17.30
2018-09-02T19:06:54.551Z,17.40
2018-09-02T19:11:58.445Z,17.20
2018-09-02T19:17:03.448Z,17.20
2018-09-02T19:22:08.256Z,17.20
2018-09-02T19:27:12.126Z,17.20
2018-09-02T19:32:17.058Z,17.20
2018-09-02T19:37:20.746Z,17.00
2018-09-02T19:42:26.967Z,17.20
2018-09-02T19:47:31.650Z,17.20
2018-09-02T19:52:35.415Z,17.10
2018-09-02T19:57:40.751Z,17.20
2018-09-02T20:02:45.479Z,17.10
2018-09-02T20:07:49.079Z,16.90
2018-09-02T20:12:52.808Z,17.00
2018-09-02T20:17:56.798Z,17.00
2018-09-02T20:23:00.630Z,17.10
2018-09-02T20:28:04.544Z,17.00
2018-09-02T20:33:08.314Z,17.00
2018-09-02T20:38:12.127Z,17.00
2018-09-02T20:43:16.823Z,17.00
2018-09-02T20:48:20.482Z,17.00
2018-09-02T20:53:24.150Z,16.90
2018-09-02T20:58:28.925Z,16.80
2018-09-02T21:03:32.779Z,16.90
2018-09-02T21:08:36.499Z,16.90
2018-09-02T21:13:40.222Z,17.00
2018-09-02T21:18:43.882Z,16.80
2018-09-02T21:23:47.710Z,17.00
2018-09-02T21:28:51.279Z,16.90
2018-09-02T21:33:54.921Z,16.90
2018-09-02T21:38:58.686Z,16.70
2018-09-02T21:44:12.312Z,16.80
2018-09-02T21:49:16.024Z,16.80
2018-09-02T21:54:19.671Z,16.90
2018-09-02T21:59:23.385Z,16.70
2018-09-02T22:04:27.008Z,16.80
2018-09-02T22:09:32.023Z,16.80
2018-09-02T22:14:36.761Z,16.90
2018-09-02T22:19:41.447Z,16.70
2018-09-02T22:24:45.161Z,16.70
2018-09-02T22:29:49.931Z,16.70
2018-09-02T22:34:53.515Z,16.50
2018-09-02T22:39:57.114Z,16.70
2018-09-02T22:45:00.697Z,16.80
2018-09-02T22:50:04.471Z,16.70
2018-09-02T22:55:08.095Z,16.50
2018-09-02T23:00:11.715Z,16.60
2018-09-02T23:05:15.297Z,16.60
2018-09-02T23:10:20.993Z,16.30
2018-09-02T23:15:24.841Z,16.20
2018-09-02T23:20:28.470Z,16.40
2018-09-02T23:25:32.126Z,16.30
2018-09-02T23:30:35.771Z,16.40
2018-09-02T23:35:39.301Z,16.30
2018-09-02T23:40:43.174Z,16.50
2018-09-02T23:45:46.751Z,16.60
2018-09-02T23:50:50.302Z,16.40
2018-09-02T23:55:53.970Z,16.20
